Time;durP1;ratioP1;P1;durP2;ratioP2;P2;SDS_P1;SDS_P2;PMS_P1;PMS_P2;Temp;Humidity;BMP_temperature;BMP_pressure;BME280_temperature;BME280_humidity;BME280_pressure;Samples;Min_cycle;Max_cycle;Signal;HPM_P1;HPM_P2
2022/10/26 00:00:43;;;;;;;;;2.00;2.00;;;;;18.66;60.21;100473.63;5099635;27;45314;-50
2022/10/26 00:03:08;;;;;;;;;6.75;5.00;;;;;18.63;60.84;100461.44;5072125;27;55779;-52
2022/10/26 00:05:34;;;;;;;;;7.00;3.75;;;;;18.65;60.29;100464.00;5086549;27;62220;-51
2022/10/26 00:08:00;;;;;;;;;5.75;4.00;;;;;18.65;60.56;100466.66;5102709;27;45682;-49
2022/10/26 00:10:26;;;;;;;;;5.25;4.00;;;;;18.66;60.30;100470.97;5089342;27;45862;-52
2022/10/26 00:12:52;;;;;;;;;5.00;4.50;;;;;18.66;60.36;100478.94;5101387;27;45430;-49
2022/10/26 00:15:18;;;;;;;;;5.00;5.00;;;;;18.65;60.21;100472.78;5087822;27;62698;-51
2022/10/26 00:17:44;;;;;;;;;6.75;4.00;;;;;18.65;60.35;100471.94;5095526;27;45526;-54
2022/10/26 00:20:10;;;;;;;;;5.00;4.00;;;;;18.65;60.16;100466.66;5088761;27;45277;-50
2022/10/26 00:22:35;;;;;;;;;5.00;3.50;;;;;18.64;60.37;100471.06;5098656;27;45363;-51
2022/10/26 00:25:00;;;;;;;;;4.50;2.50;;;;;18.66;60.20;100474.50;5080309;27;69552;-51
2022/10/26 00:27:26;;;;;;;;;6.50;4.00;;;;;18.65;60.09;100462.19;5099187;27;45202;-51
2022/10/26 00:29:51;;;;;;;;;4.00;3.00;;;;;18.65;60.00;100461.34;5092461;27;62528;-51
2022/10/26 00:32:16;;;;;;;;;5.00;4.25;;;;;18.64;60.35;100462.28;5077943;27;67801;-50
2022/10/26 00:34:42;;;;;;;;;4.50;4.00;;;;;18.62;60.37;100469.50;5094197;27;45484;-49
2022/10/26 00:37:08;;;;;;;;;4.25;3.00;;;;;18.59;59.96;100460.78;5078431;27;69111;-52
2022/10/26 00:39:33;;;;;;;;;4.25;3.50;;;;;18.62;60.29;100466.84;5092691;27;45580;-49
2022/10/26 00:41:59;;;;;;;;;7.50;4.00;;;;;18.59;60.04;100466.09;5100192;27;66065;-50
2022/10/26 00:44:47;;;;;;;;;3.00;3.00;;;;;18.57;60.00;100470.66;5086400;27;45452;-50
2022/10/26 00:47:37;;;;;;;;;3.25;2.50;;;;;18.54;60.25;100476.13;5075974;27;45502;-51
2022/10/26 00:50:09;;;;;;;;;4.00;3.00;;;;;18.52;60.15;100470.09;5077724;27;45438;-51
2022/10/26 00:52:36;;;;;;;;;5.00;3.00;;;;;18.51;60.42;100473.69;5080734;27;45500;-55
2022/10/26 00:55:01;;;;;;;;;4.00;3.00;;;;;18.48;60.15;100468.56;5091327;27;45299;-49
2022/10/26 00:57:27;;;;;;;;;3.50;3.00;;;;;18.52;60.33;100471.88;5082221;27;45668;-52
2022/10/26 00:59:54;;;;;;;;;7.00;3.00;;;;;18.51;60.33;100473.69;5084522;27;45495;-50
2022/10/26 01:02:20;;;;;;;;;5.00;3.00;;;;;18.51;60.17;100481.63;5076570;27;45348;-49
2022/10/26 01:04:46;;;;;;;;;3.25;3.25;;;;;18.52;60.13;100491.28;5087832;27;45504;-50
2022/10/26 01:07:11;;;;;;;;;3.75;3.75;;;;;18.55;60.33;100500.84;5101563;27;59063;-52
2022/10/26 01:09:37;;;;;;;;;3.00;3.00;;;;;18.57;60.22;100504.22;5081127;27;46796;-50
2022/10/26 01:12:02;;;;;;;;;4.25;3.00;;;;;18.58;59.92;100513.88;5078576;27;47096;-49
2022/10/26 01:14:28;;;;;;;;;5.75;4.50;;;;;18.58;59.96;100504.13;5089864;27;45673;-51
2022/10/26 01:17:24;;;;;;;;;3.00;3.00;;;;;18.59;59.96;100505.84;5065471;27;45533;-53
2022/10/26 01:20:18;;;;;;;;;4.75;3.00;;;;;18.61;60.07;100500.44;5087638;27;45221;-52
2022/10/26 01:23:05;;;;;;;;;6.25;3.50;;;;;18.63;60.09;100509.16;5057668;27;46950;-49
2022/10/26 01:25:59;;;;;;;;;3.75;3.75;;;;;18.61;59.88;100516.34;5101663;27;45267;-49
2022/10/26 01:28:52;;;;;;;;;5.00;4.00;;;;;18.57;59.96;100512.19;5064944;27;45432;-53
2022/10/26 01:31:24;;;;;;;;;4.50;4.50;;;;;18.57;59.97;100514.81;5081520;27;45478;-46
2022/10/26 01:34:13;;;;;;;;;3.00;3.00;;;;;18.56;59.98;100508.69;5080125;27;45365;-50
2022/10/26 01:36:47;;;;;;;;;7.00;4.00;;;;;18.55;60.28;100514.94;5094096;27;46116;-50
2022/10/26 01:39:26;;;;;;;;;3.00;3.00;;;;;18.57;59.98;100512.19;5065573;28;45453;-48
2022/10/26 01:41:56;;;;;;;;;4.00;4.00;;;;;18.57;60.08;100517.47;5094399;27;45218;-52
2022/10/26 01:44:32;;;;;;;;;5.75;3.25;;;;;18.56;60.00;100515.78;5097561;27;45439;-48
2022/10/26 01:46:59;;;;;;;;;4.50;4.50;;;;;18.58;60.34;100524.50;5081117;27;45259;-51
2022/10/26 01:49:31;;;;;;;;;4.50;3.25;;;;;18.59;60.42;100532.34;5052168;27;49035;-50
2022/10/26 01:51:57;;;;;;;;;4.25;4.00;;;;;18.61;60.12;100529.59;5084564;27;45410;-53
2022/10/26 01:54:22;;;;;;;;;4.00;4.00;;;;;18.62;60.00;100531.28;5094213;27;46878;-50
2022/10/26 01:56:51;;;;;;;;;3.50;3.50;;;;;18.63;60.01;100526.81;5095966;27;59273;-52
2022/10/26 01:59:44;;;;;;;;;4.75;2.75;;;;;18.62;60.05;100531.28;5091119;27;46199;-50
2022/10/26 02:02:47;;;;;;;;;6.25;5.00;;;;;18.60;60.02;100534.03;5080789;27;45540;-48
2022/10/26 02:05:28;;;;;;;;;6.00;4.00;;;;;18.60;60.33;100531.38;5092828;27;46316;-48
2022/10/26 02:08:12;;;;;;;;;6.25;4.00;;;;;18.61;60.14;100534.91;5085287;27;45329;-48
2022/10/26 02:10:47;;;;;;;;;5.50;4.00;;;;;18.62;60.14;100546.34;5087168;27;45514;-51
2022/10/26 02:13:32;;;;;;;;;3.75;3.75;;;;;18.62;60.00;100552.50;5094071;27;45284;-47
2022/10/26 02:16:14;;;;;;;;;4.50;3.75;;;;;18.63;60.17;100551.56;5078002;27;45529;-48
2022/10/26 02:18:57;;;;;;;;;5.25;4.75;;;;;18.63;59.96;100543.59;5088647;27;45413;-50
2022/10/26 02:21:50;;;;;;;;;4.00;4.00;;;;;18.65;60.18;100546.16;5063340;28;45312;-48
2022/10/26 02:24:16;;;;;;;;;6.25;4.75;;;;;18.64;60.11;100555.06;5062634;27;45619;-49
2022/10/26 02:26:44;;;;;;;;;5.25;5.00;;;;;18.62;60.22;100549.84;5089241;27;73642;-50
2022/10/26 02:29:14;;;;;;;;;4.00;4.00;;;;;18.59;59.98;100544.72;5081631;27;45287;-52
2022/10/26 02:31:40;;;;;;;;;6.25;6.00;;;;;18.60;60.41;100541.16;5081536;27;47583;-51
2022/10/26 02:34:09;;;;;;;;;4.00;4.00;;;;;18.59;60.18;100548.25;5082716;27;70126;-51
2022/10/26 02:36:46;;;;;;;;;4.00;4.00;;;;;18.59;60.22;100552.69;5113773;27;45346;-51
2022/10/26 02:39:14;;;;;;;;;6.00;4.75;;;;;18.62;60.05;100554.31;5109554;27;62636;-52
2022/10/26 02:41:39;;;;;;;;;4.00;4.00;;;;;18.60;60.46;100563.19;5109604;27;67352;-51
2022/10/26 02:44:15;;;;;;;;;6.00;3.25;;;;;18.61;60.39;100561.41;5109618;27;45382;-52
2022/10/26 02:46:42;;;;;;;;;3.75;3.00;;;;;18.63;60.42;100561.28;5129600;27;46132;-53
2022/10/26 02:49:07;;;;;;;;;6.50;5.00;;;;;18.62;60.06;100567.56;5072686;27;45453;-52
2022/10/26 02:51:41;;;;;;;;;5.00;4.50;;;;;18.62;60.16;100563.09;5103189;27;45397;-54
2022/10/26 02:54:14;;;;;;;;;5.50;4.75;;;;;18.63;60.27;100564.81;5086497;27;45384;-53
2022/10/26 02:56:45;;;;;;;;;3.50;3.00;;;;;18.63;60.41;100561.28;5088689;27;45508;-53
2022/10/26 02:59:11;;;;;;;;;6.25;4.25;;;;;18.63;60.39;100558.63;5095519;27;45331;-51
2022/10/26 03:01:37;;;;;;;;;3.00;3.00;;;;;18.63;60.39;100562.16;5088611;27;61516;-53
2022/10/26 03:04:03;;;;;;;;;4.50;4.50;;;;;18.65;60.34;100556.78;5091215;27;60616;-52
2022/10/26 03:06:29;;;;;;;;;3.00;3.00;;;;;18.66;60.17;100556.69;5089597;27;46131;-48
2022/10/26 03:08:54;;;;;;;;;7.00;4.00;;;;;18.67;60.14;100555.72;5087696;27;68777;-53
2022/10/26 03:11:19;;;;;;;;;5.00;3.25;;;;;18.70;60.18;100555.53;5092638;27;45675;-52
2022/10/26 03:13:45;;;;;;;;;6.50;4.00;;;;;18.72;60.35;100553.63;5107536;27;45365;-50
2022/10/26 03:16:10;;;;;;;;;5.00;3.00;;;;;18.74;60.15;100549.06;5084608;27;65225;-49
2022/10/26 03:18:36;;;;;;;;;4.00;3.75;;;;;18.76;59.79;100548.97;5099624;27;57503;-51
2022/10/26 03:21:01;;;;;;;;;6.25;4.00;;;;;18.78;60.19;100557.66;5080651;27;69355;-52
2022/10/26 03:23:26;;;;;;;;;4.25;2.00;;;;;18.79;59.95;100570.00;5080392;27;58060;-50
2022/10/26 03:25:56;;;;;;;;;6.00;3.00;;;;;18.78;60.01;100577.06;5099485;27;59350;-53
2022/10/26 03:28:21;;;;;;;;;2.50;2.50;;;;;18.79;59.50;100577.94;5087760;27;45721;-53
2022/10/26 03:30:46;;;;;;;;;5.00;3.00;;;;;18.81;60.03;100584.00;5092389;27;62096;-52
2022/10/26 03:33:12;;;;;;;;;3.00;3.00;;;;;18.80;59.84;100587.56;5087680;27;70114;-50
2022/10/26 03:35:37;;;;;;;;;6.00;3.00;;;;;18.81;59.86;100596.41;5078685;27;66452;-52
2022/10/26 03:38:02;;;;;;;;;4.00;2.50;;;;;18.81;59.71;100591.09;5106679;27;64631;-52
2022/10/26 03:40:28;;;;;;;;;4.50;3.00;;;;;18.82;59.94;100592.81;5089164;27;49898;-48
2022/10/26 03:42:53;;;;;;;;;4.75;4.75;;;;;18.82;59.66;100592.81;5104323;27;45223;-53
2022/10/26 03:45:18;;;;;;;;;4.50;3.00;;;;;18.81;60.00;100596.41;5107651;27;66930;-52
2022/10/26 03:47:45;;;;;;;;;4.00;4.00;;;;;18.81;59.84;100609.66;5089397;27;65097;-52
2022/10/26 03:50:16;;;;;;;;;7.00;5.00;;;;;18.80;59.91;100608.78;5083011;27;45392;-48
2022/10/26 03:52:41;;;;;;;;;5.00;4.50;;;;;18.78;59.63;100602.72;5072554;27;45419;-47
2022/10/26 03:55:07;;;;;;;;;3.00;3.00;;;;;18.78;59.67;100616.00;5078069;27;45499;-50
2022/10/26 03:57:33;;;;;;;;;4.00;3.00;;;;;18.73;59.96;100618.94;5079272;27;45734;-50
2022/10/26 03:59:58;;;;;;;;;6.50;3.25;;;;;18.74;59.92;100622.44;5076666;27;53895;-50
2022/10/26 04:02:23;;;;;;;;;4.25;4.00;;;;;18.73;60.14;100626.03;5070126;27;45247;-53
2022/10/26 04:04:49;;;;;;;;;4.75;4.00;;;;;18.72;59.97;100619.88;5089266;27;61444;-53
2022/10/26 04:07:14;;;;;;;;;4.00;4.00;;;;;18.69;60.21;100635.97;5081090;27;64277;-52
2022/10/26 04:09:40;;;;;;;;;3.50;2.50;;;;;18.68;60.30;100634.28;5082841;27;45407;-53
2022/10/26 04:12:05;;;;;;;;;4.00;2.00;;;;;18.67;59.98;100634.38;5083103;27;53459;-53
2022/10/26 04:14:31;;;;;;;;;2.00;2.00;;;;;18.65;60.06;100636.28;5085846;27;47401;-53
2022/10/26 04:16:56;;;;;;;;;2.00;2.00;;;;;18.63;59.83;100632.84;5073365;27;65879;-53
2022/10/26 04:19:21;;;;;;;;;4.75;3.00;;;;;18.62;60.12;100639.97;5084434;27;45288;-53
2022/10/26 04:21:47;;;;;;;;;3.75;3.00;;;;;18.62;59.75;100647.06;5073407;27;71173;-48
2022/10/26 04:24:12;;;;;;;;;4.00;2.00;;;;;18.61;59.93;100654.19;5124894;27;46006;-50
2022/10/26 04:26:37;;;;;;;;;3.00;3.00;;;;;18.60;59.76;100655.13;5084584;27;52623;-51
2022/10/26 04:29:06;;;;;;;;;4.00;3.00;;;;;18.58;59.93;100649.91;5090306;27;57744;-49
2022/10/26 04:31:32;;;;;;;;;3.00;3.00;;;;;18.57;60.15;100657.94;5087332;27;45370;-47
2022/10/26 04:33:57;;;;;;;;;2.00;2.00;;;;;18.56;59.74;100670.34;5085095;27;45434;-51
2022/10/26 04:36:23;;;;;;;;;3.00;3.00;;;;;18.54;59.99;100672.25;5078633;27;45343;-48
2022/10/26 04:38:48;;;;;;;;;3.00;3.00;;;;;18.54;60.04;100674.91;5082531;27;45211;-50
2022/10/26 04:41:14;;;;;;;;;6.25;3.00;;;;;18.53;60.14;100680.28;5084615;27;45300;-52
2022/10/26 04:43:39;;;;;;;;;6.25;4.00;;;;;18.52;60.28;100681.22;5072972;27;47462;-51
2022/10/26 04:46:04;;;;;;;;;2.75;2.00;;;;;18.52;59.77;100683.88;5080621;27;71681;-51
2022/10/26 04:48:30;;;;;;;;;4.00;2.00;;;;;18.49;59.85;100682.28;5092403;27;52636;-52
2022/10/26 04:50:58;;;;;;;;;3.00;3.00;;;;;18.47;59.91;100691.25;5086230;27;62811;-52
2022/10/26 04:53:24;;;;;;;;;4.50;2.00;;;;;18.48;60.06;100695.63;5070945;27;47104;-49
2022/10/26 04:55:55;;;;;;;;;3.75;2.75;;;;;18.48;60.25;100706.22;5087304;27;45416;-51
2022/10/26 04:58:20;;;;;;;;;2.00;2.00;;;;;18.46;60.26;100710.75;5087586;27;45333;-51
2022/10/26 05:00:46;;;;;;;;;4.50;3.00;;;;;18.46;59.94;100721.38;5079694;27;71068;-53
2022/10/26 05:03:11;;;;;;;;;2.25;2.25;;;;;18.46;60.17;100721.38;5097441;27;70584;-52
2022/10/26 05:05:36;;;;;;;;;3.50;2.00;;;;;18.45;60.26;100720.53;5094246;27;53457;-51
2022/10/26 05:08:03;;;;;;;;;4.50;2.25;;;;;18.44;59.96;100721.44;5085044;27;45436;-53
2022/10/26 05:10:28;;;;;;;;;3.25;3.25;;;;;18.43;60.47;100726.84;5114522;27;45409;-52
2022/10/26 05:12:55;;;;;;;;;5.25;3.00;;;;;18.41;60.01;100732.22;5097424;27;45457;-48
2022/10/26 05:15:21;;;;;;;;;3.00;2.00;;;;;18.39;60.24;100734.13;5094436;27;45193;-53
2022/10/26 05:17:53;;;;;;;;;3.00;2.00;;;;;18.36;60.26;100732.53;5097435;27;45394;-50
2022/10/26 05:20:19;;;;;;;;;3.50;2.75;;;;;18.36;60.08;100737.81;5085864;27;45313;-49
2022/10/26 05:22:51;;;;;;;;;2.25;2.00;;;;;18.37;60.34;100739.50;5087305;27;70967;-48
2022/10/26 05:25:16;;;;;;;;;3.00;3.00;;;;;18.38;59.82;100740.38;5087254;27;45260;-51
2022/10/26 05:27:42;;;;;;;;;7.00;2.75;;;;;18.37;59.97;100741.31;5115414;27;63545;-51
2022/10/26 05:30:07;;;;;;;;;4.25;3.25;;;;;18.38;60.19;100754.47;5080019;27;68482;-50
2022/10/26 05:32:33;;;;;;;;;4.75;3.00;;;;;18.35;60.23;100757.28;5076260;27;46193;-50
2022/10/26 05:34:58;;;;;;;;;3.75;2.50;;;;;18.35;60.38;100759.09;5085174;27;74208;-51
2022/10/26 05:37:27;;;;;;;;;3.75;3.00;;;;;18.34;60.28;100767.97;5096980;27;50196;-49
2022/10/26 05:39:52;;;;;;;;;5.50;4.00;;;;;18.34;60.48;100766.22;5085797;27;45623;-51
2022/10/26 05:42:19;;;;;;;;;5.25;3.50;;;;;18.32;60.44;100765.41;5074793;27;63483;-53
2022/10/26 05:44:44;;;;;;;;;2.00;0.00;;;;;18.32;60.36;100772.53;5070883;28;45726;-51
2022/10/26 05:47:10;;;;;;;;;4.50;3.50;;;;;18.31;60.29;100768.16;5079171;27;45472;-49
2022/10/26 05:49:35;;;;;;;;;3.00;2.00;;;;;18.31;60.62;100779.63;5078215;27;68638;-50
2022/10/26 05:52:00;;;;;;;;;3.00;2.00;;;;;18.30;60.60;100787.66;5076267;27;65845;-51
2022/10/26 05:54:26;;;;;;;;;2.00;2.00;;;;;18.29;60.16;100781.53;5083989;27;71654;-49
2022/10/26 05:56:51;;;;;;;;;3.25;3.00;;;;;18.26;60.34;100780.84;5079034;27;54228;-49
2022/10/26 05:59:17;;;;;;;;;4.25;2.00;;;;;18.27;60.48;100787.84;5085403;27;45523;-50
2022/10/26 06:01:54;;;;;;;;;3.00;1.75;;;;;18.27;60.75;100793.13;5083982;27;46284;-48
2022/10/26 06:04:29;;;;;;;;;5.75;3.00;;;;;18.27;60.78;100788.66;5086250;27;45788;-53
2022/10/26 06:06:55;;;;;;;;;2.00;2.00;;;;;18.27;60.72;100795.78;5090421;27;45484;-52
2022/10/26 06:09:20;;;;;;;;;6.00;2.00;;;;;18.26;60.84;100797.59;5069603;27;61076;-52
2022/10/26 06:11:46;;;;;;;;;5.00;3.25;;;;;18.25;60.73;100795.88;5112058;27;47625;-52
2022/10/26 06:14:12;;;;;;;;;3.75;3.75;;;;;18.24;60.63;100794.16;5072493;27;45436;-47
2022/10/26 06:17:15;;;;;;;;;7.00;3.00;;;;;18.25;60.66;100798.50;5079670;27;45332;-49
2022/10/26 06:20:10;;;;;;;;;4.25;3.75;;;;;18.24;60.87;100806.53;5074483;27;45742;-50
2022/10/26 06:22:54;;;;;;;;;6.75;3.00;;;;;18.25;60.77;100810.91;5068689;27;46395;-53
2022/10/26 06:25:44;;;;;;;;;8.50;5.00;;;;;18.24;60.67;100807.41;5077542;27;45378;-53
2022/10/26 06:28:57;;;;;;;;;5.50;3.75;;;;;18.24;60.78;100810.06;5072274;27;45240;-53
2022/10/26 06:31:23;;;;;;;;;4.25;4.00;;;;;18.22;60.62;100814.59;5073179;27;45300;-50
2022/10/26 06:33:48;;;;;;;;;5.00;2.25;;;;;18.23;60.80;100815.44;5089144;27;46719;-49
2022/10/26 06:36:25;;;;;;;;;3.00;3.00;;;;;18.24;60.64;100830.38;5088927;27;61768;-52
2022/10/26 06:39:07;;;;;;;;;3.00;3.00;;;;;18.21;60.68;100837.56;5085828;27;45449;-49
2022/10/26 06:41:35;;;;;;;;;6.50;3.75;;;;;18.21;61.02;100840.22;5087285;27;45297;-50
2022/10/26 06:44:03;;;;;;;;;6.50;4.75;;;;;18.21;60.64;100845.53;5074568;27;45405;-51
2022/10/26 06:46:38;;;;;;;;;3.00;3.00;;;;;18.23;60.80;100849.88;5109567;27;45374;-52
2022/10/26 06:49:09;;;;;;;;;5.00;4.00;;;;;18.20;60.77;100849.13;5087661;27;45330;-50
2022/10/26 06:51:55;;;;;;;;;4.75;4.25;;;;;18.18;60.84;100848.38;5074725;27;45543;-51
2022/10/26 06:54:27;;;;;;;;;7.25;4.50;;;;;18.18;60.57;100861.63;5086555;27;46193;-51
2022/10/26 06:56:52;;;;;;;;;5.25;4.00;;;;;18.17;60.50;100856.41;5083242;27;45383;-48
2022/10/26 06:59:37;;;;;;;;;6.75;3.00;;;;;18.18;60.89;100873.97;5088365;27;45265;-47
2022/10/26 07:02:02;;;;;;;;;7.50;3.75;;;;;18.16;60.85;100875.88;5064368;27;45864;-51
2022/10/26 07:04:27;;;;;;;;;5.00;3.00;;;;;18.12;60.95;100875.19;5086710;27;45391;-61
2022/10/26 07:06:55;;;;;;;;;5.00;5.00;;;;;18.10;61.05;100886.81;5087111;27;69080;-59
2022/10/26 07:09:21;;;;;;;;;4.75;3.50;;;;;18.10;61.32;100882.38;5094862;27;45252;-59
2022/10/26 07:11:46;;;;;;;;;5.00;5.00;;;;;18.12;60.86;100887.59;5097006;27;67562;-59
2022/10/26 07:14:11;;;;;;;;;3.50;3.00;;;;;18.12;61.10;100891.06;5088359;27;71030;-58
2022/10/26 07:16:37;;;;;;;;;5.50;5.00;;;;;18.14;61.25;100889.19;5069952;27;45286;-59
2022/10/26 07:19:02;;;;;;;;;5.00;3.75;;;;;18.15;61.02;100895.34;5075474;27;58276;-59
2022/10/26 07:21:27;;;;;;;;;5.50;5.50;;;;;18.16;60.94;100899.69;5065281;27;63014;-59
2022/10/26 07:23:55;;;;;;;;;7.75;4.25;;;;;18.17;61.29;100906.72;5078949;27;51199;-59
2022/10/26 07:26:21;;;;;;;;;6.50;4.00;;;;;18.16;61.09;100908.50;5070866;27;45487;-50
2022/10/26 07:28:49;;;;;;;;;3.00;3.00;;;;;18.18;60.99;100908.41;5073922;27;46487;-47
2022/10/26 07:31:14;;;;;;;;;6.25;4.00;;;;;18.17;61.05;100920.81;5065001;27;45453;-52
2022/10/26 07:33:41;;;;;;;;;6.50;4.50;;;;;18.20;61.06;100930.38;5077902;27;46323;-54
2022/10/26 07:36:09;;;;;;;;;6.00;4.25;;;;;18.21;61.12;100947.97;5076545;27;45512;-54
2022/10/26 07:38:35;;;;;;;;;5.50;5.00;;;;;18.19;61.38;100942.75;5096937;27;45406;-55
2022/10/26 07:41:01;;;;;;;;;6.25;3.50;;;;;18.20;60.84;100949.78;5071695;27;45544;-52
2022/10/26 07:43:26;;;;;;;;;6.00;6.00;;;;;18.20;60.83;100940.97;5077071;27;45489;-55
2022/10/26 07:45:52;;;;;;;;;5.50;3.00;;;;;18.21;60.92;100947.97;5085743;27;58413;-54
2022/10/26 07:48:17;;;;;;;;;4.50;4.50;;;;;18.20;61.25;100952.44;5086721;27;45130;-54
2022/10/26 07:50:42;;;;;;;;;6.00;5.00;;;;;18.20;61.03;100960.38;5104226;27;45476;-52
2022/10/26 07:53:08;;;;;;;;;9.50;5.25;;;;;18.21;60.93;100959.44;5073797;27;45985;-54
2022/10/26 07:55:33;;;;;;;;;7.50;6.00;;;;;18.20;61.25;100957.72;5076110;27;66644;-53
2022/10/26 07:57:58;;;;;;;;;10.75;8.50;;;;;18.22;61.03;100965.59;5110609;27;45235;-52
2022/10/26 08:00:24;;;;;;;;;11.00;7.00;;;;;18.24;60.99;100955.78;5073869;27;71842;-51
2022/10/26 08:02:50;;;;;;;;;5.50;5.50;;;;;18.26;61.25;100963.63;5089899;27;47211;-48
2022/10/26 08:05:15;;;;;;;;;8.50;7.00;;;;;18.27;61.30;100962.69;5077658;27;45505;-51
2022/10/26 08:07:42;;;;;;;;;25.50;20.50;;;;;18.26;60.68;100975.06;5073647;27;45271;-53
2022/10/26 08:10:08;;;;;;;;;30.50;22.75;;;;;18.28;61.24;100986.44;5076250;27;45682;-51
2022/10/26 08:12:33;;;;;;;;;19.75;15.75;;;;;18.29;61.20;100984.63;5074424;27;46006;-52
2022/10/26 08:14:59;;;;;;;;;9.50;7.25;;;;;18.31;61.23;100990.69;5113941;27;60713;-50
2022/10/26 08:17:24;;;;;;;;;11.00;5.00;;;;;18.33;61.07;100988.84;5082893;27;66073;-50
2022/10/26 08:19:49;;;;;;;;;8.25;5.00;;;;;18.35;61.03;101002.84;5092441;27;61429;-50
2022/10/26 08:22:15;;;;;;;;;6.25;6.00;;;;;18.36;61.22;100996.59;5068321;27;68175;-49
2022/10/26 08:24:42;;;;;;;;;6.25;5.25;;;;;18.38;61.11;101002.69;5080600;27;45453;-48
2022/10/26 08:27:08;;;;;;;;;10.00;7.00;;;;;18.40;61.09;101006.13;5078914;27;45291;-50
2022/10/26 08:29:33;;;;;;;;;7.00;5.00;;;;;18.46;61.07;101015.50;5090936;27;45310;-49
2022/10/26 08:31:59;;;;;;;;;8.25;6.25;;;;;18.48;60.70;101017.13;5072770;27;47860;-51
2022/10/26 08:34:24;;;;;;;;;7.25;7.00;;;;;18.52;60.74;101016.03;5059567;27;45513;-49
2022/10/26 08:36:49;;;;;;;;;9.00;7.50;;;;;18.56;60.69;101022.00;5071978;27;53654;-49
2022/10/26 08:39:15;;;;;;;;;8.50;4.00;;;;;18.58;60.97;101020.97;5083715;27;49346;-47
2022/10/26 08:41:43;;;;;;;;;8.50;3.25;;;;;18.64;60.70;101010.97;5083266;27;74567;-47
2022/10/26 08:44:28;;;;;;;;;7.00;6.00;;;;;18.67;60.94;101019.59;5067921;27;45416;-48
2022/10/26 08:46:58;;;;;;;;;4.00;4.00;;;;;18.72;60.28;101017.56;5091002;27;45485;-47
2022/10/26 08:49:47;;;;;;;;;5.00;4.00;;;;;18.75;60.37;101016.50;5083573;27;45476;-49
2022/10/26 08:52:16;;;;;;;;;8.50;5.75;;;;;18.79;60.28;101020.72;5076963;27;46084;-51
2022/10/26 08:54:51;;;;;;;;;7.25;4.75;;;;;18.82;60.59;101015.25;5079150;27;45575;-47
2022/10/26 08:57:34;;;;;;;;;8.75;5.50;;;;;18.86;60.62;101024.75;5067244;27;45472;-49
2022/10/26 09:00:10;;;;;;;;;9.00;6.00;;;;;18.90;60.59;101026.28;5074310;27;45356;-49
2022/10/26 09:02:36;;;;;;;;;8.50;5.50;;;;;18.93;60.14;101035.88;5114680;27;46478;-46
2022/10/26 09:05:04;;;;;;;;;9.25;7.75;;;;;18.96;60.22;101033.91;5083263;27;50895;-46
2022/10/26 09:07:51;;;;;;;;;13.50;7.50;;;;;19.00;60.26;101044.31;5075828;27;45509;-46
2022/10/26 09:10:26;;;;;;;;;10.25;8.00;;;;;19.04;60.10;101043.22;5076626;27;45516;-47
2022/10/26 09:13:03;;;;;;;;;9.00;7.00;;;;;19.06;60.06;101058.09;5083010;27;45599;-47
2022/10/26 09:15:53;;;;;;;;;8.50;6.00;;;;;19.08;60.22;101056.19;5070861;27;45469;-52
2022/10/26 09:18:40;;;;;;;;;8.50;5.00;;;;;19.13;60.07;101063.91;5080854;27;45333;-46
2022/10/26 09:21:26;;;;;;;;;6.75;4.00;;;;;19.16;59.82;101061.06;5080123;27;46247;-46
2022/10/26 09:24:01;;;;;;;;;8.25;5.25;;;;;19.18;59.83;101072.44;5109103;27;47192;-48
2022/10/26 09:26:57;;;;;;;;;4.25;3.50;;;;;19.23;59.57;101058.91;5078850;27;45424;-50
2022/10/26 09:29:28;;;;;;;;;7.00;6.50;;;;;19.27;60.05;101068.41;5079492;27;45516;-46
2022/10/26 09:31:55;;;;;;;;;7.50;6.00;;;;;19.30;59.74;101069.09;5050865;27;45338;-48
2022/10/26 09:34:27;;;;;;;;;5.25;5.00;;;;;19.35;59.90;101067.03;5055185;27;45597;-52
2022/10/26 09:36:55;;;;;;;;;9.75;8.50;;;;;19.38;59.58;101063.31;5075121;27;45257;-46
2022/10/26 09:39:25;;;;;;;;;7.50;6.00;;;;;19.41;59.30;101070.25;5081095;27;45538;-46
2022/10/26 09:42:16;;;;;;;;;7.00;5.00;;;;;19.44;59.59;101078.91;5094522;27;45291;-52
2022/10/26 09:44:49;;;;;;;;;9.50;5.00;;;;;19.48;59.77;101091.03;5063884;27;46181;-51
2022/10/26 09:47:37;;;;;;;;;7.50;7.50;;;;;19.50;59.30;101081.19;5096825;27;45704;-48
2022/10/26 09:50:06;;;;;;;;;9.75;7.00;;;;;19.54;59.12;101088.00;5092503;27;45405;-50
2022/10/26 09:52:32;;;;;;;;;9.00;7.75;;;;;19.56;59.12;101079.97;5087662;27;45316;-50
2022/10/26 09:54:57;;;;;;;;;8.00;7.50;;;;;19.60;58.96;101085.94;5082177;27;48379;-50
2022/10/26 09:57:22;;;;;;;;;8.00;6.00;;;;;19.63;59.39;101088.41;5074608;27;62343;-47
2022/10/26 09:59:49;;;;;;;;;4.00;3.00;;;;;19.66;58.69;101091.75;5060035;27;45472;-47
2022/10/26 10:02:36;;;;;;;;;3.50;2.00;;;;;19.68;58.15;101096.97;5076111;27;45141;-46
2022/10/26 10:05:22;;;;;;;;;4.75;3.75;;;;;19.71;58.53;101094.97;5077503;27;47026;-49
2022/10/26 10:07:47;;;;;;;;;7.00;5.25;;;;;19.76;58.06;101108.03;5069173;27;45443;-47
2022/10/26 10:10:21;;;;;;;;;12.00;9.00;;;;;19.81;57.64;101111.22;5075941;27;45309;-47
2022/10/26 10:12:49;;;;;;;;;2.50;2.50;;;;;19.86;57.68;101119.78;5070339;27;45454;-49
2022/10/26 10:15:21;;;;;;;;;5.00;3.50;;;;;19.89;57.93;101118.75;5069150;27;46231;-48
2022/10/26 10:17:51;;;;;;;;;5.00;4.00;;;;;19.92;57.27;101123.91;5078083;27;45410;-50
2022/10/26 10:20:36;;;;;;;;;3.75;3.25;;;;;19.98;57.29;101131.50;5068375;27;45641;-45
2022/10/26 10:23:05;;;;;;;;;6.00;2.75;;;;;20.01;57.28;101133.09;5063506;28;45547;-47
2022/10/26 10:25:36;;;;;;;;;5.50;4.00;;;;;20.04;57.35;101140.88;5073940;27;46349;-46
2022/10/26 10:28:02;;;;;;;;;6.50;4.00;;;;;20.09;57.37;101144.13;5072408;27;45428;-49
2022/10/26 10:30:30;;;;;;;;;4.00;2.00;;;;;20.11;57.48;101139.56;5068212;27;45497;-50
2022/10/26 10:33:06;;;;;;;;;6.75;4.75;;;;;20.15;57.14;101143.75;5067103;27;45548;-50
2022/10/26 10:35:31;;;;;;;;;4.75;4.75;;;;;20.18;57.24;101148.03;5084203;27;45403;-51
2022/10/26 10:37:57;;;;;;;;;10.00;6.00;;;;;20.22;57.07;101152.19;5069366;27;47215;-47
2022/10/26 10:40:25;;;;;;;;;6.25;4.25;;;;;20.24;56.73;101153.81;5079382;27;64104;-51
2022/10/26 10:42:52;;;;;;;;;3.00;2.75;;;;;20.26;56.81;101148.44;5081568;27;45524;-49
2022/10/26 10:45:23;;;;;;;;;6.00;2.50;;;;;20.30;57.12;101147.28;5068140;27;45543;-46
2022/10/26 10:48:00;;;;;;;;;15.00;13.50;;;;;20.33;57.20;101149.75;5081624;27;45334;-51
2022/10/26 10:50:25;;;;;;;;;12.50;6.00;;;;;20.36;56.30;101146.03;5064878;27;45431;-48
2022/10/26 10:52:51;;;;;;;;;22.25;15.00;;;;;20.39;57.08;101146.69;5072945;27;45282;-50
2022/10/26 10:55:21;;;;;;;;;13.25;10.50;;;;;20.40;56.83;101160.88;5086500;27;48043;-50
2022/10/26 10:58:16;;;;;;;;;8.25;5.50;;;;;20.44;56.67;101157.06;5076925;27;45390;-49
2022/10/26 11:00:47;;;;;;;;;7.50;5.75;;;;;20.46;56.38;101157.81;5078592;27;45343;-54
2022/10/26 11:03:42;;;;;;;;;8.00;7.75;;;;;20.49;56.48;101154.97;5093155;27;45447;-48
2022/10/26 11:06:27;;;;;;;;;12.75;10.75;;;;;20.53;56.33;101160.97;5067210;27;47194;-53
2022/10/26 11:08:59;;;;;;;;;8.50;6.75;;;;;20.55;56.26;101159.06;5096198;27;45680;-49
2022/10/26 11:11:25;;;;;;;;;6.00;6.00;;;;;20.58;56.04;101164.19;5074522;27;45504;-51
2022/10/26 11:13:54;;;;;;;;;6.00;4.00;;;;;20.59;56.06;101169.41;5109302;27;45387;-53
2022/10/26 11:16:25;;;;;;;;;10.00;7.00;;;;;20.63;56.13;101155.00;5089861;27;45295;-52
2022/10/26 11:19:21;;;;;;;;;10.00;5.50;;;;;20.66;56.33;101167.25;5072258;27;45298;-52
2022/10/26 11:21:53;;;;;;;;;14.25;10.00;;;;;20.69;56.07;101171.53;5069196;27;45326;-52
2022/10/26 11:24:29;;;;;;;;;8.00;6.75;;;;;20.71;55.97;101180.25;5083910;27;45518;-53
2022/10/26 11:27:08;;;;;;;;;4.50;4.50;;;;;20.73;56.05;101170.38;5075561;27;45452;-51
2022/10/26 11:29:44;;;;;;;;;4.00;4.00;;;;;20.75;56.11;101173.78;5107461;27;45605;-52
2022/10/26 11:32:18;;;;;;;;;7.00;4.00;;;;;20.77;56.09;101175.41;5078807;27;45525;-52
2022/10/26 11:34:52;;;;;;;;;6.50;3.00;;;;;20.80;55.32;101174.34;5087587;27;45379;-53
2022/10/26 11:37:35;;;;;;;;;10.00;6.75;;;;;20.84;55.55;101173.19;5061668;27;46169;-49
2022/10/26 11:40:19;;;;;;;;;13.00;10.25;;;;;20.85;55.59;101173.13;5082007;27;45248;-51